Aleknagik, Alaska
Current Conditions -  °F | °C
As of 11:45 AM on Tuesday 21 Oct 2014 (Local Time) from PADL Reporting Station
Scattered Clouds Scattered Clouds  
Wind Chill: 20°   Ceiling: Unl
Heat Index: 30°   Visibility: 15mi
Dew Point: 27°   Wind: 14mph
Humidity: 86%   Direction: 350°N
Pressure: 29.32"   Gusts: NA
Location:  59.27°N, 158.62°W
Report Text: PADL 211945Z 35012KT 15SM SCT050 M01/M03 A2932
Loading
Personal Weather Stations






























Interactive Weather Map
Tropical Storm Tracking
New forecast layout! Learn more

10-Day Weather Forecast

Advertisements
Track Severe Weather on mobile